sensor_id;sensor_type;location;lat;lon;timestamp;P1;durP1;ratioP1;P2;durP2;ratioP2
37641;SDS011;23486;51.956;5.888;2024-01-16T00:01:14;7.18;;;0.70;;
37641;SDS011;23486;51.956;5.888;2024-01-16T00:03:41;5.82;;;0.75;;
37641;SDS011;23486;51.956;5.888;2024-01-16T00:06:07;8.55;;;0.90;;
37641;SDS011;23486;51.956;5.888;2024-01-16T00:08:32;4.50;;;0.73;;
37641;SDS011;23486;51.956;5.888;2024-01-16T00:10:58;8.23;;;0.93;;
37641;SDS011;23486;51.956;5.888;2024-01-16T00:13:23;8.70;;;0.95;;
37641;SDS011;23486;51.956;5.888;2024-01-16T00:15:49;4.40;;;0.40;;
37641;SDS011;23486;51.956;5.888;2024-01-16T00:18:15;6.85;;;0.82;;
37641;SDS011;23486;51.956;5.888;2024-01-16T00:20:41;2.90;;;0.43;;
37641;SDS011;23486;51.956;5.888;2024-01-16T00:23:07;8.65;;;0.70;;
37641;SDS011;23486;51.956;5.888;2024-01-16T00:25:35;6.10;;;0.47;;
37641;SDS011;23486;51.956;5.888;2024-01-16T00:28:01;10.85;;;1.30;;
37641;SDS011;23486;51.956;5.888;2024-01-16T00:30:27;3.67;;;0.40;;
37641;SDS011;23486;51.956;5.888;2024-01-16T00:32:52;9.23;;;0.70;;
37641;SDS011;23486;51.956;5.888;2024-01-16T00:35:18;2.38;;;0.55;;
37641;SDS011;23486;51.956;5.888;2024-01-16T00:37:46;5.18;;;0.50;;
37641;SDS011;23486;51.956;5.888;2024-01-16T00:40:12;3.40;;;0.43;;
37641;SDS011;23486;51.956;5.888;2024-01-16T00:42:38;8.90;;;0.70;;
37641;SDS011;23486;51.956;5.888;2024-01-16T00:45:04;3.65;;;0.40;;
37641;SDS011;23486;51.956;5.888;2024-01-16T00:47:30;4.72;;;0.52;;
37641;SDS011;23486;51.956;5.888;2024-01-16T00:49:55;3.90;;;0.47;;
37641;SDS011;23486;51.956;5.888;2024-01-16T00:52:21;4.35;;;1.10;;
37641;SDS011;23486;51.956;5.888;2024-01-16T00:54:46;7.72;;;0.50;;
37641;SDS011;23486;51.956;5.888;2024-01-16T00:57:12;6.15;;;0.50;;
37641;SDS011;23486;51.956;5.888;2024-01-16T00:59:40;2.72;;;0.40;;
37641;SDS011;23486;51.956;5.888;2024-01-16T01:02:08;5.03;;;0.50;;
37641;SDS011;23486;51.956;5.888;2024-01-16T01:04:36;5.25;;;0.70;;
37641;SDS011;23486;51.956;5.888;2024-01-16T01:07:02;6.75;;;0.70;;
37641;SDS011;23486;51.956;5.888;2024-01-16T01:09:28;4.40;;;0.60;;
37641;SDS011;23486;51.956;5.888;2024-01-16T01:11:53;5.03;;;0.40;;
37641;SDS011;23486;51.956;5.888;2024-01-16T01:14:19;8.50;;;0.40;;
37641;SDS011;23486;51.956;5.888;2024-01-16T01:16:45;5.07;;;0.43;;
37641;SDS011;23486;51.956;5.888;2024-01-16T01:19:10;8.65;;;0.55;;
37641;SDS011;23486;51.956;5.888;2024-01-16T01:21:37;5.32;;;0.60;;
37641;SDS011;23486;51.956;5.888;2024-01-16T01:24:03;6.85;;;0.95;;
37641;SDS011;23486;51.956;5.888;2024-01-16T01:26:28;9.40;;;0.90;;
37641;SDS011;23486;51.956;5.888;2024-01-16T01:28:57;9.38;;;0.70;;
37641;SDS011;23486;51.956;5.888;2024-01-16T01:31:22;5.85;;;0.85;;
37641;SDS011;23486;51.956;5.888;2024-01-16T01:33:48;6.90;;;0.50;;
37641;SDS011;23486;51.956;5.888;2024-01-16T01:36:14;6.07;;;2.47;;
37641;SDS011;23486;51.956;5.888;2024-01-16T01:38:39;2.63;;;0.70;;
37641;SDS011;23486;51.956;5.888;2024-01-16T01:41:05;5.72;;;0.63;;
37641;SDS011;23486;51.956;5.888;2024-01-16T01:43:30;8.82;;;1.25;;
37641;SDS011;23486;51.956;5.888;2024-01-16T01:46:17;6.72;;;1.20;;
37641;SDS011;23486;51.956;5.888;2024-01-16T01:48:43;6.82;;;1.73;;
37641;SDS011;23486;51.956;5.888;2024-01-16T01:51:10;10.40;;;1.83;;
37641;SDS011;23486;51.956;5.888;2024-01-16T01:53:38;6.25;;;1.10;;
37641;SDS011;23486;51.956;5.888;2024-01-16T01:56:06;6.25;;;1.20;;
37641;SDS011;23486;51.956;5.888;2024-01-16T01:58:38;4.97;;;1.40;;
37641;SDS011;23486;51.956;5.888;2024-01-16T02:01:06;16.25;;;2.08;;
37641;SDS011;23486;51.956;5.888;2024-01-16T02:03:35;4.82;;;1.13;;
37641;SDS011;23486;51.956;5.888;2024-01-16T02:06:06;5.50;;;1.63;;
37641;SDS011;23486;51.956;5.888;2024-01-16T02:08:32;5.85;;;1.25;;
37641;SDS011;23486;51.956;5.888;2024-01-16T02:10:58;8.93;;;1.63;;
37641;SDS011;23486;51.956;5.888;2024-01-16T02:13:24;7.07;;;1.45;;
37641;SDS011;23486;51.956;5.888;2024-01-16T02:15:50;6.78;;;2.13;;
37641;SDS011;23486;51.956;5.888;2024-01-16T02:18:16;5.72;;;1.50;;
37641;SDS011;23486;51.956;5.888;2024-01-16T02:20:42;5.45;;;1.67;;
37641;SDS011;23486;51.956;5.888;2024-01-16T02:23:08;9.93;;;2.42;;
37641;SDS011;23486;51.956;5.888;2024-01-16T02:25:37;5.68;;;2.15;;
37641;SDS011;23486;51.956;5.888;2024-01-16T02:28:03;12.48;;;3.50;;
37641;SDS011;23486;51.956;5.888;2024-01-16T02:30:29;6.38;;;2.67;;
37641;SDS011;23486;51.956;5.888;2024-01-16T02:32:55;15.60;;;5.32;;
37641;SDS011;23486;51.956;5.888;2024-01-16T02:35:20;21.83;;;8.35;;
37641;SDS011;23486;51.956;5.888;2024-01-16T02:37:46;24.63;;;11.18;;
37641;SDS011;23486;51.956;5.888;2024-01-16T02:40:11;24.45;;;9.68;;
37641;SDS011;23486;51.956;5.888;2024-01-16T02:42:37;29.05;;;11.02;;
37641;SDS011;23486;51.956;5.888;2024-01-16T02:45:03;31.30;;;12.98;;
37641;SDS011;23486;51.956;5.888;2024-01-16T02:47:29;34.83;;;15.90;;
37641;SDS011;23486;51.956;5.888;2024-01-16T02:49:55;31.95;;;15.18;;
37641;SDS011;23486;51.956;5.888;2024-01-16T02:52:21;26.65;;;13.88;;
37641;SDS011;23486;51.956;5.888;2024-01-16T02:54:46;31.08;;;14.13;;
37641;SDS011;23486;51.956;5.888;2024-01-16T02:57:12;30.10;;;12.95;;
37641;SDS011;23486;51.956;5.888;2024-01-16T02:59:37;25.65;;;11.82;;
37641;SDS011;23486;51.956;5.888;2024-01-16T03:02:03;24.88;;;11.80;;
37641;SDS011;23486;51.956;5.888;2024-01-16T03:04:29;29.15;;;12.35;;
37641;SDS011;23486;51.956;5.888;2024-01-16T03:06:55;23.25;;;11.73;;
37641;SDS011;23486;51.956;5.888;2024-01-16T03:09:20;21.27;;;9.88;;
37641;SDS011;23486;51.956;5.888;2024-01-16T03:11:46;22.38;;;10.65;;
37641;SDS011;23486;51.956;5.888;2024-01-16T03:14:12;19.73;;;9.38;;
37641;SDS011;23486;51.956;5.888;2024-01-16T03:16:38;21.63;;;9.10;;
37641;SDS011;23486;51.956;5.888;2024-01-16T03:19:04;19.40;;;8.23;;
37641;SDS011;23486;51.956;5.888;2024-01-16T03:21:30;18.17;;;8.55;;
37641;SDS011;23486;51.956;5.888;2024-01-16T03:23:55;15.10;;;6.78;;
37641;SDS011;23486;51.956;5.888;2024-01-16T03:26:21;22.02;;;9.02;;
37641;SDS011;23486;51.956;5.888;2024-01-16T03:28:47;17.92;;;7.13;;
37641;SDS011;23486;51.956;5.888;2024-01-16T03:31:13;19.13;;;7.88;;
37641;SDS011;23486;51.956;5.888;2024-01-16T03:33:42;19.35;;;8.32;;
37641;SDS011;23486;51.956;5.888;2024-01-16T03:36:10;16.25;;;6.90;;
37641;SDS011;23486;51.956;5.888;2024-01-16T03:38:37;17.05;;;7.88;;
37641;SDS011;23486;51.956;5.888;2024-01-16T03:41:03;21.67;;;8.68;;
37641;SDS011;23486;51.956;5.888;2024-01-16T03:43:31;18.67;;;8.95;;
37641;SDS011;23486;51.956;5.888;2024-01-16T03:46:00;23.15;;;8.85;;
37641;SDS011;23486;51.956;5.888;2024-01-16T03:48:26;17.90;;;8.65;;
37641;SDS011;23486;51.956;5.888;2024-01-16T03:50:51;21.20;;;8.98;;
37641;SDS011;23486;51.956;5.888;2024-01-16T03:53:19;20.80;;;8.88;;
37641;SDS011;23486;51.956;5.888;2024-01-16T03:55:45;15.88;;;6.97;;
37641;SDS011;23486;51.956;5.888;2024-01-16T03:58:11;18.50;;;7.35;;
37641;SDS011;23486;51.956;5.888;2024-01-16T04:00:36;12.20;;;5.45;;
37641;SDS011;23486;51.956;5.888;2024-01-16T04:03:02;15.20;;;6.00;;
37641;SDS011;23486;51.956;5.888;2024-01-16T04:05:28;11.93;;;4.60;;
37641;SDS011;23486;51.956;5.888;2024-01-16T04:07:53;9.68;;;4.13;;
37641;SDS011;23486;51.956;5.888;2024-01-16T04:10:19;13.73;;;4.70;;
37641;SDS011;23486;51.956;5.888;2024-01-16T04:12:45;13.55;;;4.47;;
37641;SDS011;23486;51.956;5.888;2024-01-16T04:15:10;9.10;;;4.18;;
37641;SDS011;23486;51.956;5.888;2024-01-16T04:17:36;12.88;;;4.85;;
37641;SDS011;23486;51.956;5.888;2024-01-16T04:20:02;11.20;;;3.83;;
37641;SDS011;23486;51.956;5.888;2024-01-16T04:22:28;12.48;;;4.53;;
37641;SDS011;23486;51.956;5.888;2024-01-16T04:24:53;11.90;;;3.75;;
37641;SDS011;23486;51.956;5.888;2024-01-16T04:27:19;7.50;;;3.80;;
37641;SDS011;23486;51.956;5.888;2024-01-16T04:29:45;7.82;;;2.15;;
37641;SDS011;23486;51.956;5.888;2024-01-16T04:32:10;9.02;;;3.00;;
37641;SDS011;23486;51.956;5.888;2024-01-16T04:34:36;12.93;;;2.80;;
37641;SDS011;23486;51.956;5.888;2024-01-16T04:37:01;10.25;;;3.17;;
37641;SDS011;23486;51.956;5.888;2024-01-16T04:39:28;12.18;;;3.92;;
37641;SDS011;23486;51.956;5.888;2024-01-16T04:41:53;10.02;;;3.60;;
37641;SDS011;23486;51.956;5.888;2024-01-16T04:44:19;6.93;;;2.58;;
37641;SDS011;23486;51.956;5.888;2024-01-16T04:46:45;8.38;;;2.63;;
37641;SDS011;23486;51.956;5.888;2024-01-16T04:49:10;10.52;;;3.05;;
37641;SDS011;23486;51.956;5.888;2024-01-16T04:51:36;9.45;;;2.22;;
37641;SDS011;23486;51.956;5.888;2024-01-16T04:54:02;9.23;;;4.40;;
37641;SDS011;23486;51.956;5.888;2024-01-16T04:56:27;12.25;;;3.92;;
37641;SDS011;23486;51.956;5.888;2024-01-16T04:58:53;8.70;;;4.20;;
37641;SDS011;23486;51.956;5.888;2024-01-16T05:01:18;9.13;;;3.70;;
37641;SDS011;23486;51.956;5.888;2024-01-16T05:03:44;16.23;;;5.22;;
37641;SDS011;23486;51.956;5.888;2024-01-16T05:06:13;8.38;;;4.35;;
37641;SDS011;23486;51.956;5.888;2024-01-16T05:08:40;12.35;;;4.03;;
37641;SDS011;23486;51.956;5.888;2024-01-16T05:11:06;15.52;;;5.43;;
37641;SDS011;23486;51.956;5.888;2024-01-16T05:13:31;17.38;;;7.60;;
37641;SDS011;23486;51.956;5.888;2024-01-16T05:15:57;14.43;;;6.20;;
37641;SDS011;23486;51.956;5.888;2024-01-16T05:18:22;21.98;;;7.90;;
37641;SDS011;23486;51.956;5.888;2024-01-16T05:20:48;16.70;;;7.43;;
37641;SDS011;23486;51.956;5.888;2024-01-16T05:23:13;16.20;;;7.03;;
37641;SDS011;23486;51.956;5.888;2024-01-16T05:25:39;15.63;;;7.90;;
37641;SDS011;23486;51.956;5.888;2024-01-16T05:28:04;13.23;;;6.40;;
37641;SDS011;23486;51.956;5.888;2024-01-16T05:30:33;14.43;;;6.07;;
37641;SDS011;23486;51.956;5.888;2024-01-16T05:32:58;15.15;;;6.30;;
37641;SDS011;23486;51.956;5.888;2024-01-16T05:35:26;12.45;;;5.68;;
37641;SDS011;23486;51.956;5.888;2024-01-16T05:37:52;16.48;;;4.82;;
37641;SDS011;23486;51.956;5.888;2024-01-16T05:40:18;13.48;;;4.13;;
37641;SDS011;23486;51.956;5.888;2024-01-16T05:42:44;12.63;;;4.05;;
37641;SDS011;23486;51.956;5.888;2024-01-16T05:45:10;9.98;;;3.55;;
37641;SDS011;23486;51.956;5.888;2024-01-16T05:47:36;10.10;;;3.17;;
37641;SDS011;23486;51.956;5.888;2024-01-16T05:50:02;15.57;;;2.17;;
37641;SDS011;23486;51.956;5.888;2024-01-16T05:52:28;5.25;;;1.50;;
37641;SDS011;23486;51.956;5.888;2024-01-16T05:54:53;11.00;;;2.33;;
37641;SDS011;23486;51.956;5.888;2024-01-16T05:57:22;5.22;;;1.80;;
37641;SDS011;23486;51.956;5.888;2024-01-16T05:59:48;9.95;;;2.03;;
37641;SDS011;23486;51.956;5.888;2024-01-16T06:02:13;10.35;;;1.67;;
37641;SDS011;23486;51.956;5.888;2024-01-16T06:04:39;20.77;;;2.47;;
37641;SDS011;23486;51.956;5.888;2024-01-16T06:07:05;9.43;;;1.83;;
37641;SDS011;23486;51.956;5.888;2024-01-16T06:09:33;8.23;;;1.40;;
37641;SDS011;23486;51.956;5.888;2024-01-16T06:12:05;10.10;;;1.80;;
37641;SDS011;23486;51.956;5.888;2024-01-16T06:14:32;5.75;;;2.08;;
37641;SDS011;23486;51.956;5.888;2024-01-16T06:16:58;10.43;;;1.48;;
37641;SDS011;23486;51.956;5.888;2024-01-16T06:19:24;8.48;;;1.63;;
37641;SDS011;23486;51.956;5.888;2024-01-16T06:21:49;9.15;;;1.88;;
37641;SDS011;23486;51.956;5.888;2024-01-16T06:24:15;8.85;;;2.50;;
37641;SDS011;23486;51.956;5.888;2024-01-16T06:26:40;7.65;;;2.55;;
37641;SDS011;23486;51.956;5.888;2024-01-16T06:29:07;13.00;;;4.05;;
37641;SDS011;23486;51.956;5.888;2024-01-16T06:31:33;18.17;;;5.38;;
37641;SDS011;23486;51.956;5.888;2024-01-16T06:33:58;9.90;;;3.25;;
37641;SDS011;23486;51.956;5.888;2024-01-16T06:36:27;15.25;;;4.60;;
37641;SDS011;23486;51.956;5.888;2024-01-16T06:38:53;8.98;;;3.70;;
37641;SDS011;23486;51.956;5.888;2024-01-16T06:41:18;12.18;;;4.22;;
37641;SDS011;23486;51.956;5.888;2024-01-16T06:43:44;11.35;;;3.40;;
37641;SDS011;23486;51.956;5.888;2024-01-16T06:46:10;15.00;;;3.67;;
37641;SDS011;23486;51.956;5.888;2024-01-16T06:48:36;11.15;;;4.28;;
37641;SDS011;23486;51.956;5.888;2024-01-16T06:51:02;9.15;;;3.40;;
37641;SDS011;23486;51.956;5.888;2024-01-16T06:53:28;10.55;;;3.95;;
37641;SDS011;23486;51.956;5.888;2024-01-16T06:55:54;12.18;;;3.70;;
37641;SDS011;23486;51.956;5.888;2024-01-16T06:58:20;8.80;;;3.20;;
37641;SDS011;23486;51.956;5.888;2024-01-16T07:00:46;9.85;;;2.70;;
37641;SDS011;23486;51.956;5.888;2024-01-16T07:03:12;10.80;;;3.22;;
37641;SDS011;23486;51.956;5.888;2024-01-16T07:05:38;9.40;;;3.05;;
37641;SDS011;23486;51.956;5.888;2024-01-16T07:08:05;9.95;;;3.03;;
37641;SDS011;23486;51.956;5.888;2024-01-16T07:10:32;12.15;;;3.50;;
37641;SDS011;23486;51.956;5.888;2024-01-16T07:12:59;11.85;;;3.55;;
37641;SDS011;23486;51.956;5.888;2024-01-16T07:15:24;7.82;;;3.20;;
37641;SDS011;23486;51.956;5.888;2024-01-16T07:17:50;8.05;;;2.78;;
37641;SDS011;23486;51.956;5.888;2024-01-16T07:20:16;8.80;;;2.95;;
37641;SDS011;23486;51.956;5.888;2024-01-16T07:22:41;12.10;;;3.55;;
37641;SDS011;23486;51.956;5.888;2024-01-16T07:25:07;14.52;;;4.75;;
37641;SDS011;23486;51.956;5.888;2024-01-16T07:27:33;9.05;;;3.33;;
37641;SDS011;23486;51.956;5.888;2024-01-16T07:29:59;13.13;;;4.57;;
37641;SDS011;23486;51.956;5.888;2024-01-16T07:32:25;18.13;;;5.15;;
37641;SDS011;23486;51.956;5.888;2024-01-16T07:34:54;11.75;;;4.82;;
37641;SDS011;23486;51.956;5.888;2024-01-16T07:37:19;16.65;;;5.70;;
37641;SDS011;23486;51.956;5.888;2024-01-16T07:39:45;17.95;;;7.70;;
37641;SDS011;23486;51.956;5.888;2024-01-16T07:42:10;20.98;;;7.03;;
37641;SDS011;23486;51.956;5.888;2024-01-16T07:44:36;17.63;;;6.78;;
37641;SDS011;23486;51.956;5.888;2024-01-16T07:47:01;22.50;;;9.25;;
37641;SDS011;23486;51.956;5.888;2024-01-16T07:49:28;21.15;;;9.38;;
37641;SDS011;23486;51.956;5.888;2024-01-16T07:51:54;21.85;;;11.15;;
37641;SDS011;23486;51.956;5.888;2024-01-16T07:54:19;38.05;;;14.23;;
37641;SDS011;23486;51.956;5.888;2024-01-16T07:56:45;30.58;;;13.13;;
37641;SDS011;23486;51.956;5.888;2024-01-16T07:59:10;26.98;;;13.07;;
37641;SDS011;23486;51.956;5.888;2024-01-16T08:01:36;24.58;;;11.98;;
37641;SDS011;23486;51.956;5.888;2024-01-16T08:04:02;24.02;;;11.82;;
37641;SDS011;23486;51.956;5.888;2024-01-16T08:06:28;32.75;;;14.75;;
37641;SDS011;23486;51.956;5.888;2024-01-16T08:08:54;24.20;;;13.38;;
37641;SDS011;23486;51.956;5.888;2024-01-16T08:11:20;28.40;;;14.43;;
37641;SDS011;23486;51.956;5.888;2024-01-16T08:13:45;26.25;;;14.48;;
37641;SDS011;23486;51.956;5.888;2024-01-16T08:16:11;26.77;;;14.32;;
37641;SDS011;23486;51.956;5.888;2024-01-16T08:18:37;35.95;;;18.55;;
37641;SDS011;23486;51.956;5.888;2024-01-16T08:21:02;36.10;;;17.60;;
37641;SDS011;23486;51.956;5.888;2024-01-16T08:23:28;28.48;;;15.98;;
37641;SDS011;23486;51.956;5.888;2024-01-16T08:25:53;26.52;;;16.35;;
37641;SDS011;23486;51.956;5.888;2024-01-16T08:28:19;36.15;;;19.02;;
37641;SDS011;23486;51.956;5.888;2024-01-16T08:30:45;28.88;;;17.25;;
37641;SDS011;23486;51.956;5.888;2024-01-16T08:33:11;29.13;;;16.90;;
37641;SDS011;23486;51.956;5.888;2024-01-16T08:35:37;29.13;;;17.92;;
37641;SDS011;23486;51.956;5.888;2024-01-16T08:38:03;30.63;;;19.40;;
37641;SDS011;23486;51.956;5.888;2024-01-16T08:40:29;31.13;;;18.15;;
37641;SDS011;23486;51.956;5.888;2024-01-16T08:42:55;27.95;;;16.00;;
37641;SDS011;23486;51.956;5.888;2024-01-16T08:45:21;27.10;;;16.45;;
37641;SDS011;23486;51.956;5.888;2024-01-16T08:47:47;30.63;;;17.48;;
37641;SDS011;23486;51.956;5.888;2024-01-16T08:50:13;26.45;;;15.93;;
37641;SDS011;23486;51.956;5.888;2024-01-16T08:52:39;21.95;;;15.02;;
37641;SDS011;23486;51.956;5.888;2024-01-16T08:55:05;20.15;;;13.55;;
37641;SDS011;23486;51.956;5.888;2024-01-16T08:57:31;18.70;;;13.48;;
37641;SDS011;23486;51.956;5.888;2024-01-16T08:59:56;23.08;;;13.07;;
37641;SDS011;23486;51.956;5.888;2024-01-16T09:02:22;20.92;;;13.43;;
37641;SDS011;23486;51.956;5.888;2024-01-16T09:04:49;22.02;;;12.25;;
37641;SDS011;23486;51.956;5.888;2024-01-16T09:07:15;18.15;;;10.90;;
37641;SDS011;23486;51.956;5.888;2024-01-16T09:09:44;20.00;;;14.30;;
37641;SDS011;23486;51.956;5.888;2024-01-16T09:12:12;20.90;;;13.02;;
37641;SDS011;23486;51.956;5.888;2024-01-16T09:14:38;21.02;;;12.18;;
37641;SDS011;23486;51.956;5.888;2024-01-16T09:17:04;21.95;;;10.63;;
37641;SDS011;23486;51.956;5.888;2024-01-16T09:19:29;20.10;;;11.90;;
37641;SDS011;23486;51.956;5.888;2024-01-16T09:21:55;24.52;;;11.38;;
37641;SDS011;23486;51.956;5.888;2024-01-16T09:24:21;15.00;;;10.20;;
37641;SDS011;23486;51.956;5.888;2024-01-16T09:26:47;19.52;;;11.48;;
37641;SDS011;23486;51.956;5.888;2024-01-16T09:29:12;20.80;;;11.25;;
37641;SDS011;23486;51.956;5.888;2024-01-16T09:31:39;16.08;;;9.98;;
37641;SDS011;23486;51.956;5.888;2024-01-16T09:34:05;18.65;;;11.25;;
37641;SDS011;23486;51.956;5.888;2024-01-16T09:36:31;17.10;;;9.38;;
37641;SDS011;23486;51.956;5.888;2024-01-16T09:38:57;13.27;;;8.52;;
37641;SDS011;23486;51.956;5.888;2024-01-16T09:41:23;17.40;;;9.95;;
37641;SDS011;23486;51.956;5.888;2024-01-16T09:43:48;20.13;;;10.10;;
37641;SDS011;23486;51.956;5.888;2024-01-16T09:46:15;18.75;;;9.38;;
37641;SDS011;23486;51.956;5.888;2024-01-16T09:48:44;20.00;;;9.13;;
37641;SDS011;23486;51.956;5.888;2024-01-16T09:51:11;23.55;;;9.45;;
37641;SDS011;23486;51.956;5.888;2024-01-16T09:53:40;14.50;;;7.30;;
37641;SDS011;23486;51.956;5.888;2024-01-16T09:56:11;12.90;;;7.82;;
37641;SDS011;23486;51.956;5.888;2024-01-16T09:58:40;17.60;;;8.05;;
37641;SDS011;23486;51.956;5.888;2024-01-16T10:01:06;13.20;;;8.07;;
37641;SDS011;23486;51.956;5.888;2024-01-16T10:03:32;19.60;;;8.93;;
37641;SDS011;23486;51.956;5.888;2024-01-16T10:06:06;13.15;;;7.95;;
37641;SDS011;23486;51.956;5.888;2024-01-16T10:08:32;14.68;;;8.57;;
37641;SDS011;23486;51.956;5.888;2024-01-16T10:10:58;21.80;;;9.90;;
37641;SDS011;23486;51.956;5.888;2024-01-16T10:13:24;18.45;;;9.48;;
37641;SDS011;23486;51.956;5.888;2024-01-16T10:15:51;12.55;;;7.53;;
37641;SDS011;23486;51.956;5.888;2024-01-16T10:18:29;15.93;;;7.80;;
37641;SDS011;23486;51.956;5.888;2024-01-16T10:20:55;20.67;;;8.13;;
37641;SDS011;23486;51.956;5.888;2024-01-16T10:23:28;17.80;;;8.05;;
37641;SDS011;23486;51.956;5.888;2024-01-16T10:28:33;17.27;;;6.82;;
37641;SDS011;23486;51.956;5.888;2024-01-16T10:31:06;15.05;;;6.13;;
37641;SDS011;23486;51.956;5.888;2024-01-16T10:33:33;10.88;;;5.85;;
37641;SDS011;23486;51.956;5.888;2024-01-16T10:36:08;14.63;;;6.20;;
37641;SDS011;23486;51.956;5.888;2024-01-16T10:38:45;9.50;;;4.95;;
37641;SDS011;23486;51.956;5.888;2024-01-16T10:41:15;14.75;;;5.93;;
37641;SDS011;23486;51.956;5.888;2024-01-16T10:43:42;13.07;;;6.70;;
37641;SDS011;23486;51.956;5.888;2024-01-16T10:46:12;12.63;;;6.97;;
37641;SDS011;23486;51.956;5.888;2024-01-16T10:48:42;13.65;;;6.78;;
37641;SDS011;23486;51.956;5.888;2024-01-16T10:51:10;8.13;;;5.07;;
37641;SDS011;23486;51.956;5.888;2024-01-16T10:53:44;13.10;;;5.50;;
37641;SDS011;23486;51.956;5.888;2024-01-16T10:56:13;18.63;;;6.85;;
37641;SDS011;23486;51.956;5.888;2024-01-16T10:58:41;14.32;;;6.00;;
37641;SDS011;23486;51.956;5.888;2024-01-16T11:01:09;14.75;;;5.72;;
37641;SDS011;23486;51.956;5.888;2024-01-16T11:06:11;11.40;;;4.90;;
37641;SDS011;23486;51.956;5.888;2024-01-16T11:08:38;9.43;;;4.40;;
37641;SDS011;23486;51.956;5.888;2024-01-16T11:11:05;12.32;;;4.72;;
37641;SDS011;23486;51.956;5.888;2024-01-16T11:13:33;10.70;;;4.70;;
37641;SDS011;23486;51.956;5.888;2024-01-16T11:15:59;11.15;;;4.97;;
37641;SDS011;23486;51.956;5.888;2024-01-16T11:18:30;11.75;;;4.60;;
37641;SDS011;23486;51.956;5.888;2024-01-16T11:20:57;12.02;;;5.88;;
37641;SDS011;23486;51.956;5.888;2024-01-16T11:23:24;12.60;;;5.70;;
37641;SDS011;23486;51.956;5.888;2024-01-16T11:25:50;9.73;;;4.68;;
37641;SDS011;23486;51.956;5.888;2024-01-16T11:28:15;7.97;;;3.72;;
37641;SDS011;23486;51.956;5.888;2024-01-16T11:30:42;7.55;;;3.17;;
37641;SDS011;23486;51.956;5.888;2024-01-16T11:35:56;9.07;;;3.50;;
37641;SDS011;23486;51.956;5.888;2024-01-16T11:38:21;13.07;;;5.43;;
37641;SDS011;23486;51.956;5.888;2024-01-16T11:40:51;13.18;;;4.50;;
37641;SDS011;23486;51.956;5.888;2024-01-16T11:48:25;9.73;;;3.83;;
37641;SDS011;23486;51.956;5.888;2024-01-16T11:50:51;8.13;;;3.78;;
37641;SDS011;23486;51.956;5.888;2024-01-16T11:56:13;12.45;;;4.65;;
37641;SDS011;23486;51.956;5.888;2024-01-16T12:01:44;9.13;;;4.45;;
37641;SDS011;23486;51.956;5.888;2024-01-16T12:04:11;7.25;;;4.18;;
37641;SDS011;23486;51.956;5.888;2024-01-16T12:06:39;8.88;;;4.35;;
37641;SDS011;23486;51.956;5.888;2024-01-16T12:09:15;11.20;;;4.43;;
37641;SDS011;23486;51.956;5.888;2024-01-16T12:11:56;13.38;;;4.97;;
37641;SDS011;23486;51.956;5.888;2024-01-16T12:14:26;9.07;;;4.60;;
37641;SDS011;23486;51.956;5.888;2024-01-16T12:16:52;10.77;;;4.43;;
37641;SDS011;23486;51.956;5.888;2024-01-16T12:19:18;13.73;;;4.47;;
37641;SDS011;23486;51.956;5.888;2024-01-16T12:21:44;13.88;;;4.95;;
37641;SDS011;23486;51.956;5.888;2024-01-16T12:24:10;12.30;;;4.15;;
37641;SDS011;23486;51.956;5.888;2024-01-16T12:26:37;11.23;;;5.15;;
37641;SDS011;23486;51.956;5.888;2024-01-16T12:29:03;8.70;;;4.68;;
37641;SDS011;23486;51.956;5.888;2024-01-16T12:31:28;10.10;;;4.15;;
37641;SDS011;23486;51.956;5.888;2024-01-16T12:34:04;8.43;;;4.30;;
37641;SDS011;23486;51.956;5.888;2024-01-16T12:36:33;13.43;;;5.38;;
37641;SDS011;23486;51.956;5.888;2024-01-16T12:39:00;10.90;;;4.75;;
37641;SDS011;23486;51.956;5.888;2024-01-16T12:41:26;9.60;;;4.65;;
37641;SDS011;23486;51.956;5.888;2024-01-16T12:43:55;7.35;;;3.67;;
37641;SDS011;23486;51.956;5.888;2024-01-16T12:46:21;12.50;;;5.00;;
37641;SDS011;23486;51.956;5.888;2024-01-16T12:48:46;12.20;;;4.30;;
37641;SDS011;23486;51.956;5.888;2024-01-16T12:51:16;11.15;;;5.28;;
37641;SDS011;23486;51.956;5.888;2024-01-16T12:53:47;10.60;;;4.20;;
37641;SDS011;23486;51.956;5.888;2024-01-16T12:56:12;10.20;;;4.40;;
37641;SDS011;23486;51.956;5.888;2024-01-16T12:58:44;14.98;;;4.55;;
37641;SDS011;23486;51.956;5.888;2024-01-16T13:01:26;13.02;;;4.63;;
37641;SDS011;23486;51.956;5.888;2024-01-16T13:03:56;9.18;;;3.38;;
37641;SDS011;23486;51.956;5.888;2024-01-16T13:06:24;10.82;;;3.85;;
37641;SDS011;23486;51.956;5.888;2024-01-16T13:08:50;11.52;;;3.88;;
37641;SDS011;23486;51.956;5.888;2024-01-16T13:11:30;9.77;;;4.07;;
37641;SDS011;23486;51.956;5.888;2024-01-16T13:14:01;11.85;;;4.60;;
37641;SDS011;23486;51.956;5.888;2024-01-16T13:16:30;11.30;;;3.75;;
37641;SDS011;23486;51.956;5.888;2024-01-16T13:19:02;11.07;;;4.25;;
37641;SDS011;23486;51.956;5.888;2024-01-16T13:21:30;10.52;;;4.47;;
37641;SDS011;23486;51.956;5.888;2024-01-16T13:23:55;9.48;;;4.55;;
37641;SDS011;23486;51.956;5.888;2024-01-16T13:26:21;13.35;;;4.93;;
37641;SDS011;23486;51.956;5.888;2024-01-16T13:28:47;9.98;;;3.80;;
37641;SDS011;23486;51.956;5.888;2024-01-16T13:31:13;11.65;;;3.67;;
37641;SDS011;23486;51.956;5.888;2024-01-16T13:33:38;7.88;;;3.70;;
37641;SDS011;23486;51.956;5.888;2024-01-16T13:36:04;12.07;;;3.53;;
37641;SDS011;23486;51.956;5.888;2024-01-16T13:38:30;8.82;;;3.20;;
37641;SDS011;23486;51.956;5.888;2024-01-16T13:40:55;9.43;;;4.05;;
37641;SDS011;23486;51.956;5.888;2024-01-16T13:43:21;14.20;;;4.68;;
37641;SDS011;23486;51.956;5.888;2024-01-16T13:45:46;10.07;;;3.92;;
37641;SDS011;23486;51.956;5.888;2024-01-16T13:48:14;10.95;;;4.07;;
37641;SDS011;23486;51.956;5.888;2024-01-16T13:50:41;8.88;;;3.88;;
37641;SDS011;23486;51.956;5.888;2024-01-16T13:53:07;8.10;;;3.30;;
37641;SDS011;23486;51.956;5.888;2024-01-16T13:55:32;11.07;;;3.55;;
37641;SDS011;23486;51.956;5.888;2024-01-16T13:57:58;7.82;;;3.30;;
37641;SDS011;23486;51.956;5.888;2024-01-16T14:00:24;13.63;;;3.60;;
37641;SDS011;23486;51.956;5.888;2024-01-16T14:02:50;10.40;;;3.20;;
37641;SDS011;23486;51.956;5.888;2024-01-16T14:05:17;8.95;;;3.10;;
37641;SDS011;23486;51.956;5.888;2024-01-16T14:07:47;7.18;;;2.88;;
37641;SDS011;23486;51.956;5.888;2024-01-16T14:10:17;8.30;;;3.00;;
37641;SDS011;23486;51.956;5.888;2024-01-16T14:12:44;5.80;;;2.05;;
37641;SDS011;23486;51.956;5.888;2024-01-16T14:15:12;7.82;;;3.10;;
37641;SDS011;23486;51.956;5.888;2024-01-16T14:17:44;5.03;;;2.13;;
37641;SDS011;23486;51.956;5.888;2024-01-16T14:20:13;7.85;;;2.10;;
37641;SDS011;23486;51.956;5.888;2024-01-16T14:22:40;8.57;;;2.10;;
37641;SDS011;23486;51.956;5.888;2024-01-16T14:25:09;9.55;;;3.13;;
37641;SDS011;23486;51.956;5.888;2024-01-16T14:27:42;7.47;;;2.20;;
37641;SDS011;23486;51.956;5.888;2024-01-16T14:30:10;12.77;;;2.42;;
37641;SDS011;23486;51.956;5.888;2024-01-16T14:32:37;11.25;;;2.80;;
37641;SDS011;23486;51.956;5.888;2024-01-16T14:35:05;7.53;;;2.17;;
37641;SDS011;23486;51.956;5.888;2024-01-16T14:37:32;9.10;;;2.10;;
37641;SDS011;23486;51.956;5.888;2024-01-16T14:39:59;10.90;;;1.77;;
37641;SDS011;23486;51.956;5.888;2024-01-16T14:42:28;5.97;;;2.10;;
37641;SDS011;23486;51.956;5.888;2024-01-16T14:44:54;6.85;;;1.88;;
37641;SDS011;23486;51.956;5.888;2024-01-16T14:47:20;8.77;;;1.98;;
37641;SDS011;23486;51.956;5.888;2024-01-16T14:49:45;8.70;;;2.58;;
37641;SDS011;23486;51.956;5.888;2024-01-16T14:52:11;6.70;;;2.03;;
37641;SDS011;23486;51.956;5.888;2024-01-16T14:54:37;8.10;;;2.67;;